createdAt,value
2023-04-03T00:01:54.655Z,100270.94
2023-04-03T00:04:21.241Z,100266.25
2023-04-03T00:06:47.785Z,100282.72
2023-04-03T00:09:14.273Z,100287.81
2023-04-03T00:11:40.729Z,100269.38
2023-04-03T00:14:07.426Z,100288.59
2023-04-03T00:16:33.955Z,100284.28
2023-04-03T00:19:00.793Z,100286.59
2023-04-03T00:21:27.321Z,100285.81
2023-04-03T00:23:53.879Z,100284.22
2023-04-03T00:26:20.865Z,100276.00
2023-04-03T00:28:47.376Z,100275.19
2023-04-03T00:31:16.871Z,100285.38
2023-04-03T00:33:43.397Z,100286.53
2023-04-03T00:36:11.436Z,100270.44
2023-04-03T00:38:38.180Z,100270.44
2023-04-03T00:41:05.588Z,100288.88
2023-04-03T00:43:32.189Z,100290.03
2023-04-03T00:45:59.820Z,100266.09
2023-04-03T00:48:37.343Z,100302.94
2023-04-03T00:51:04.998Z,100297.84
2023-04-03T00:53:38.527Z,100290.38
2023-04-03T00:56:08.012Z,100284.06
2023-04-03T00:58:39.126Z,100286.41
2023-04-03T01:01:08.285Z,100281.66
2023-04-03T01:03:34.884Z,100289.50
2023-04-03T01:06:01.680Z,100283.97
2023-04-03T01:08:28.095Z,100280.78
2023-04-03T01:10:54.564Z,100294.09
2023-04-03T01:13:32.044Z,100291.69
2023-04-03T01:16:01.910Z,100300.28
2023-04-03T01:18:28.604Z,100295.53
2023-04-03T01:21:22.354Z,100297.47
2023-04-03T01:23:54.482Z,100300.22
2023-04-03T01:26:21.103Z,100301.03
2023-04-03T01:28:47.772Z,100283.69
2023-04-03T01:31:21.844Z,100299.41
2023-04-03T01:33:48.950Z,100282.94
2023-04-03T01:36:19.142Z,100287.22
2023-04-03T01:38:45.749Z,100309.63
2023-04-03T01:41:12.239Z,100309.22
2023-04-03T01:43:38.812Z,100304.13
2023-04-03T01:46:05.492Z,100308.09
2023-04-03T01:48:32.055Z,100322.94
2023-04-03T01:50:58.567Z,100290.44
2023-04-03T01:53:25.234Z,100315.53
2023-04-03T01:55:51.838Z,100317.53
2023-04-03T01:58:18.305Z,100297.09
2023-04-03T02:00:44.791Z,100316.75
2023-04-03T02:03:11.358Z,100321.50
2023-04-03T02:05:38.688Z,100334.81
2023-04-03T02:08:05.569Z,100300.69
2023-04-03T02:10:32.031Z,100302.31
2023-04-03T02:12:58.496Z,100329.78
2023-04-03T02:15:25.059Z,100323.56
2023-04-03T02:17:51.803Z,100318.41
2023-04-03T02:20:18.396Z,100336.47
2023-04-03T02:22:45.017Z,100334.91
2023-04-03T02:25:11.681Z,100332.91
2023-04-03T02:27:38.128Z,100338.41
2023-04-03T02:30:06.157Z,100328.59
2023-04-03T02:32:33.126Z,100332.53
2023-04-03T02:34:59.645Z,100340.75
2023-04-03T02:37:26.591Z,100338.00
2023-04-03T02:39:53.097Z,100337.56
2023-04-03T02:42:19.605Z,100341.44
2023-04-03T02:44:46.182Z,100337.91
2023-04-03T02:47:12.698Z,100341.81
2023-04-03T02:49:39.146Z,100309.59
2023-04-03T02:52:05.625Z,100343.75
2023-04-03T02:54:32.163Z,100348.81
2023-04-03T02:56:59.002Z,100344.13
2023-04-03T02:59:25.786Z,100339.00
2023-04-03T03:01:52.418Z,100335.81
2023-04-03T03:04:19.594Z,100342.09
2023-04-03T03:06:47.404Z,100330.25
2023-04-03T03:09:14.337Z,100346.31
2023-04-03T03:11:41.260Z,100343.22
2023-04-03T03:14:07.807Z,100345.56
2023-04-03T03:16:34.301Z,100345.19
2023-04-03T03:19:01.014Z,100335.38
2023-04-03T03:21:27.667Z,100350.25
2023-04-03T03:23:54.222Z,100350.66
2023-04-03T03:26:20.830Z,100348.66
2023-04-03T03:28:47.388Z,100320.31
2023-04-03T03:31:13.972Z,100344.22
2023-04-03T03:33:40.772Z,100329.59
2023-04-03T03:36:07.784Z,100332.72
2023-04-03T03:38:34.264Z,100347.28
2023-04-03T03:41:00.691Z,100353.53
2023-04-03T03:43:27.158Z,100348.41
2023-04-03T03:45:54.101Z,100355.44
2023-04-03T03:48:21.903Z,100355.38
2023-04-03T03:50:48.965Z,100363.19
2023-04-03T03:53:16.096Z,100354.56
2023-04-03T03:55:42.705Z,100352.16
2023-04-03T03:58:09.179Z,100359.94
2023-04-03T04:00:36.125Z,100354.03
2023-04-03T04:03:02.769Z,100362.59
2023-04-03T04:05:29.496Z,100356.72
2023-04-03T04:07:55.982Z,100361.34
2023-04-03T04:10:22.785Z,100371.91
2023-04-03T04:12:50.154Z,100363.19
2023-04-03T04:15:16.898Z,100371.41
2023-04-03T04:17:43.351Z,100362.78
2023-04-03T04:20:10.425Z,100365.03
2023-04-03T04:22:36.982Z,100371.25
2023-04-03T04:25:03.613Z,100370.44
2023-04-03T04:27:30.294Z,100376.66
2023-04-03T04:29:59.258Z,100363.97
2023-04-03T04:32:26.057Z,100382.84
2023-04-03T04:34:52.772Z,100391.50
2023-04-03T04:37:19.282Z,100395.81
2023-04-03T04:39:45.885Z,100398.59
2023-04-03T04:42:15.554Z,100401.78
2023-04-03T04:44:42.564Z,100374.25
2023-04-03T04:47:09.108Z,100407.38
2023-04-03T04:49:35.591Z,100405.84
2023-04-03T04:52:02.101Z,100405.16
2023-04-03T04:54:28.640Z,100411.78
2023-04-03T04:56:55.457Z,100405.91
2023-04-03T04:59:22.181Z,100419.66
2023-04-03T05:01:48.810Z,100411.88
2023-04-03T05:04:16.061Z,100413.50
2023-04-03T05:06:42.524Z,100398.16
2023-04-03T05:09:09.822Z,100424.56
2023-04-03T05:11:36.420Z,100421.06
2023-04-03T05:14:04.456Z,100393.50
2023-04-03T05:16:30.931Z,100424.59
2023-04-03T05:18:57.451Z,100425.69
2023-04-03T05:21:25.873Z,100406.84
2023-04-03T05:23:52.733Z,100431.25
2023-04-03T05:26:19.253Z,100408.00
2023-04-03T05:28:45.881Z,100429.69
2023-04-03T05:31:12.473Z,100410.03
2023-04-03T05:33:38.944Z,100427.38
2023-04-03T05:36:06.165Z,100422.28
2023-04-03T05:38:33.114Z,100424.59
2023-04-03T05:40:59.946Z,100429.69
2023-04-03T05:43:26.616Z,100414.75
2023-04-03T05:45:53.161Z,100439.88
2023-04-03T05:48:19.619Z,100427.31
2023-04-03T05:50:47.064Z,100441.50
2023-04-03T05:53:27.509Z,100447.84
2023-04-03T05:55:54.897Z,100445.88
2023-04-03T05:58:21.405Z,100443.50
2023-04-03T06:00:48.058Z,100453.34
2023-04-03T06:03:14.668Z,100467.41
2023-04-03T06:05:41.280Z,100467.06
2023-04-03T06:08:07.924Z,100472.16
2023-04-03T06:10:34.460Z,100465.09
2023-04-03T06:13:01.043Z,100471.75
2023-04-03T06:15:28.255Z,100476.34
2023-04-03T06:17:55.046Z,100473.59
2023-04-03T06:20:21.955Z,100469.75
2023-04-03T06:22:48.651Z,100452.03
2023-04-03T06:25:15.387Z,100477.63
2023-04-03T06:27:41.876Z,100472.53
2023-04-03T06:30:08.980Z,100480.03
2023-04-03T06:32:35.529Z,100472.59
2023-04-03T06:35:02.074Z,100483.16
2023-04-03T06:37:29.889Z,100491.81
2023-04-03T06:39:56.502Z,100487.91
2023-04-03T06:42:23.372Z,100473.38
2023-04-03T06:44:49.901Z,100471.91
2023-04-03T06:47:17.441Z,100474.66
2023-04-03T06:49:44.183Z,100486.88
2023-04-03T06:52:10.962Z,100482.97
2023-04-03T06:54:37.417Z,100482.09
2023-04-03T06:57:04.273Z,100496.75
2023-04-03T06:59:30.875Z,100497.19
2023-04-03T07:01:57.606Z,100500.75
2023-04-03T07:04:24.232Z,100505.03
2023-04-03T07:06:51.536Z,100471.66
2023-04-03T07:09:17.986Z,100499.19
2023-04-03T07:11:44.527Z,100502.34
2023-04-03T07:14:11.025Z,100491.00
2023-04-03T07:16:40.016Z,100494.59
2023-04-03T07:19:09.418Z,100484.81
2023-04-03T07:21:36.460Z,100522.22
2023-04-03T07:24:03.094Z,100519.91
2023-04-03T07:26:29.633Z,100523.09
2023-04-03T07:28:56.119Z,100536.09
2023-04-03T07:31:22.659Z,100497.25
2023-04-03T07:33:49.194Z,100534.59
2023-04-03T07:36:19.249Z,100542.44
2023-04-03T07:38:46.482Z,100535.41
2023-04-03T07:41:18.490Z,100544.53
2023-04-03T07:43:46.156Z,100547.69
2023-04-03T07:46:13.079Z,100555.09
2023-04-03T07:48:39.765Z,100550.38
2023-04-03T07:51:06.591Z,100530.25
2023-04-03T07:53:33.363Z,100545.53
2023-04-03T07:56:00.232Z,100552.56
2023-04-03T07:58:26.853Z,100517.53
2023-04-03T08:00:53.628Z,100558.41
2023-04-03T08:03:20.383Z,100562.44
2023-04-03T08:05:48.457Z,100520.81
2023-04-03T08:08:19.950Z,100555.09
2023-04-03T08:10:52.581Z,100553.94
2023-04-03T08:13:19.834Z,100557.19
2023-04-03T08:15:46.448Z,100561.97
2023-04-03T08:18:14.000Z,100560.53
2023-04-03T08:20:41.393Z,100562.16
2023-04-03T08:23:08.875Z,100559.84
2023-04-03T08:25:39.525Z,100541.34
2023-04-03T08:28:06.001Z,100556.66
2023-04-03T08:30:32.400Z,100558.25
2023-04-03T08:33:02.097Z,100531.16
2023-04-03T08:35:28.938Z,100546.03
2023-04-03T08:37:55.558Z,100552.63
2023-04-03T08:40:22.295Z,100554.94
2023-04-03T08:42:57.908Z,100558.00
2023-04-03T08:45:52.557Z,100550.44
2023-04-03T08:48:29.020Z,100551.53
2023-04-03T08:51:03.046Z,100551.50
2023-04-03T08:53:33.984Z,100553.41
2023-04-03T08:56:05.456Z,100548.88
2023-04-03T08:58:38.279Z,100548.25
2023-04-03T09:01:15.661Z,100561.41
2023-04-03T09:03:42.429Z,100537.25
2023-04-03T09:06:16.164Z,100542.25
2023-04-03T09:08:54.654Z,100565.84
2023-04-03T09:11:30.052Z,100558.09
2023-04-03T09:14:27.377Z,100559.41
2023-04-03T09:16:59.242Z,100561.03
2023-04-03T09:19:29.618Z,100563.03
2023-04-03T09:21:58.214Z,100567.84
2023-04-03T09:24:25.374Z,100561.09
2023-04-03T09:27:00.759Z,100564.75
2023-04-03T09:29:27.719Z,100559.69
2023-04-03T09:31:58.161Z,100551.88
2023-04-03T09:34:43.008Z,100561.31
2023-04-03T09:37:09.656Z,100555.88
2023-04-03T09:39:55.091Z,100559.50
2023-04-03T09:42:23.687Z,100548.53
2023-04-03T09:44:59.057Z,100566.41
2023-04-03T09:47:28.930Z,100556.59
2023-04-03T09:50:16.664Z,100556.91
2023-04-03T09:52:45.216Z,100556.94
2023-04-03T09:55:30.548Z,100552.28
2023-04-03T09:57:59.793Z,100534.81
2023-04-03T10:00:29.837Z,100549.66
2023-04-03T10:02:57.438Z,100550.69
2023-04-03T10:05:31.881Z,100552.75
2023-04-03T10:08:27.152Z,100540.88
2023-04-03T10:11:10.806Z,100547.88
2023-04-03T10:13:50.796Z,100527.47
2023-04-03T10:16:21.662Z,100551.50
2023-04-03T10:19:04.287Z,100532.59
2023-04-03T10:21:39.670Z,100533.06
2023-04-03T10:24:26.706Z,100540.50
2023-04-03T10:27:14.920Z,100535.34
2023-04-03T10:29:41.943Z,100538.41
2023-04-03T10:32:15.018Z,100542.47
2023-04-03T10:34:54.738Z,100536.28
2023-04-03T10:37:38.380Z,100525.03
2023-04-03T10:40:35.285Z,100530.22
2023-04-03T10:43:01.749Z,100533.84
2023-04-03T10:46:01.647Z,100524.75
2023-04-03T10:48:31.098Z,100538.69
2023-04-03T10:51:09.607Z,100528.53
2023-04-03T10:53:40.700Z,100533.66
2023-04-03T10:56:14.906Z,100492.28
2023-04-03T10:58:45.149Z,100520.97
2023-04-03T11:01:20.393Z,100524.13
2023-04-03T11:03:51.514Z,100517.47
2023-04-03T11:06:19.347Z,100512.72
2023-04-03T11:08:50.442Z,100509.19
2023-04-03T11:11:22.639Z,100514.22
2023-04-03T11:14:14.253Z,100505.94
2023-04-03T11:16:53.603Z,100494.44
2023-04-03T11:19:27.881Z,100499.41
2023-04-03T11:22:38.552Z,100502.84
2023-04-03T11:25:13.737Z,100483.94
2023-04-03T11:27:43.166Z,100476.25
2023-04-03T11:30:18.821Z,100482.44
2023-04-03T11:33:10.159Z,100484.06
2023-04-03T11:35:38.004Z,100425.06
2023-04-03T11:38:08.941Z,100457.97
2023-04-03T11:40:36.790Z,100479.97
2023-04-03T11:43:05.080Z,100481.41
2023-04-03T11:45:51.826Z,100468.50
2023-04-03T11:48:34.142Z,100479.09
2023-04-03T11:51:22.120Z,100485.44
2023-04-03T11:53:49.518Z,100477.56
2023-04-03T11:56:25.552Z,100472.88
2023-04-03T11:59:19.327Z,100471.00
2023-04-03T12:01:48.793Z,100469.25
2023-04-03T12:04:16.901Z,100457.25
2023-04-03T12:06:50.544Z,100465.56
2023-04-03T12:09:57.522Z,100459.50
2023-04-03T12:12:29.926Z,100461.66
2023-04-03T12:14:56.414Z,100438.94
2023-04-03T12:17:28.718Z,100463.91
2023-04-03T12:19:55.324Z,100469.19
2023-04-03T12:22:22.346Z,100451.22
2023-04-03T12:24:51.606Z,100455.44
2023-04-03T12:27:39.794Z,100454.69
2023-04-03T12:30:29.120Z,100452.25
2023-04-03T12:33:13.163Z,100426.00
2023-04-03T12:36:00.624Z,100444.50
2023-04-03T12:39:10.585Z,100436.00
2023-04-03T12:41:36.998Z,100426.09
2023-04-03T12:44:09.983Z,100432.00
2023-04-03T12:46:48.488Z,100426.38
2023-04-03T12:49:21.137Z,100419.06
2023-04-03T12:51:47.998Z,100416.78
2023-04-03T12:54:27.560Z,100399.00
2023-04-03T12:57:11.436Z,100412.41
2023-04-03T12:59:39.216Z,100390.16
2023-04-03T13:02:17.944Z,100414.59
2023-04-03T13:04:44.623Z,100411.44
2023-04-03T13:07:21.881Z,100395.25
2023-04-03T13:09:56.859Z,100406.84
2023-04-03T13:12:23.379Z,100416.84
2023-04-03T13:14:59.515Z,100400.25
2023-04-03T13:17:27.057Z,100403.16
2023-04-03T13:19:54.033Z,100398.41
2023-04-03T13:22:26.470Z,100415.97
2023-04-03T13:24:55.699Z,100410.06
2023-04-03T13:27:22.587Z,100412.53
2023-04-03T13:29:54.087Z,100410.25
2023-04-03T13:32:24.067Z,100411.75
2023-04-03T13:34:51.336Z,100410.59
2023-04-03T13:37:28.792Z,100407.75
2023-04-03T13:40:14.087Z,100394.53
2023-04-03T13:42:42.373Z,100378.63
2023-04-03T13:45:27.159Z,100391.66
2023-04-03T13:48:12.841Z,100402.78
2023-04-03T13:51:23.594Z,100405.41
2023-04-03T13:53:54.696Z,100402.84
2023-04-03T13:56:38.603Z,100400.31
2023-04-03T13:59:23.049Z,100394.25
2023-04-03T14:01:56.336Z,100391.97
2023-04-03T14:04:29.027Z,100373.44
2023-04-03T14:06:56.333Z,100394.66
2023-04-03T14:09:24.358Z,100386.47
2023-04-03T14:11:54.490Z,100388.69
2023-04-03T14:14:31.731Z,100391.69
2023-04-03T14:17:01.022Z,100388.53
2023-04-03T14:19:36.330Z,100391.28
2023-04-03T14:22:38.022Z,100390.66
2023-04-03T14:25:05.084Z,100374.31
2023-04-03T14:27:38.869Z,100386.91
2023-04-03T14:30:11.058Z,100380.97
2023-04-03T14:32:37.945Z,100387.34
2023-04-03T14:35:05.594Z,100378.19
2023-04-03T14:37:33.329Z,100381.44
2023-04-03T14:40:01.265Z,100383.97
2023-04-03T14:42:31.821Z,100375.31
2023-04-03T14:45:00.303Z,100390.31
2023-04-03T14:47:31.661Z,100377.09
2023-04-03T14:50:02.453Z,100376.63
2023-04-03T14:52:35.223Z,100377.09
2023-04-03T14:55:02.208Z,100384.28
2023-04-03T14:57:30.051Z,100386.75
2023-04-03T14:59:56.757Z,100376.41
2023-04-03T15:02:37.997Z,100375.47
2023-04-03T15:05:07.702Z,100355.75
2023-04-03T15:07:40.070Z,100376.22
2023-04-03T15:10:28.028Z,100369.28
2023-04-03T15:12:54.764Z,100363.00
2023-04-03T15:15:23.515Z,100345.56
2023-04-03T15:17:55.464Z,100377.72
2023-04-03T15:20:24.950Z,100385.16
2023-04-03T15:22:51.938Z,100366.34
2023-04-03T15:25:19.179Z,100364.84
2023-04-03T15:27:46.117Z,100350.09
2023-04-03T15:30:16.430Z,100371.25
2023-04-03T15:32:43.107Z,100363.78
2023-04-03T15:35:10.173Z,100347.31
2023-04-03T15:37:36.672Z,100363.63
2023-04-03T15:40:05.149Z,100359.69
2023-04-03T15:42:31.723Z,100370.78
2023-04-03T15:44:58.241Z,100361.69
2023-04-03T15:47:26.113Z,100345.97
2023-04-03T15:49:52.983Z,100345.25
2023-04-03T15:52:19.685Z,100368.38
2023-04-03T15:54:46.223Z,100381.19
2023-04-03T15:57:12.726Z,100370.22
2023-04-03T15:59:39.296Z,100374.91
2023-04-03T16:02:07.590Z,100378.09
2023-04-03T16:04:34.366Z,100374.94
2023-04-03T16:07:05.287Z,100346.91
2023-04-03T16:09:33.118Z,100370.88
2023-04-03T16:11:59.661Z,100368.22
2023-04-03T16:14:26.172Z,100363.19
2023-04-03T16:16:52.691Z,100374.53
2023-04-03T16:19:19.407Z,100345.19
2023-04-03T16:21:46.793Z,100363.56
2023-04-03T16:24:14.466Z,100354.50
2023-04-03T16:26:42.644Z,100363.91
2023-04-03T16:29:09.217Z,100343.28
2023-04-03T16:31:35.910Z,100361.31
2023-04-03T16:34:03.308Z,100368.44
2023-04-03T16:36:29.922Z,100365.31
2023-04-03T16:38:56.397Z,100360.72
2023-04-03T16:41:23.216Z,100354.44
2023-04-03T16:43:50.920Z,100363.03
2023-04-03T16:46:17.512Z,100351.34
2023-04-03T16:48:43.967Z,100376.09
2023-04-03T16:51:10.533Z,100372.59
2023-04-03T16:53:37.073Z,100376.56
2023-04-03T16:56:03.613Z,100363.22
2023-04-03T16:58:30.077Z,100376.72
2023-04-03T17:00:56.721Z,100360.28
2023-04-03T17:03:26.449Z,100372.81
2023-04-03T17:05:53.329Z,100367.72
2023-04-03T17:08:19.971Z,100371.28
2023-04-03T17:10:46.605Z,100375.66
2023-04-03T17:13:13.075Z,100367.78
2023-04-03T17:15:39.814Z,100377.63
2023-04-03T17:18:07.855Z,100371.75
2023-04-03T17:20:34.786Z,100358.09
2023-04-03T17:23:01.415Z,100353.75
2023-04-03T17:25:28.065Z,100377.25
2023-04-03T17:27:54.569Z,100379.59
2023-04-03T17:30:21.040Z,100382.03
2023-04-03T17:32:47.658Z,100358.97
2023-04-03T17:35:14.331Z,100376.16
2023-04-03T17:37:40.818Z,100362.16
2023-04-03T17:40:07.981Z,100390.44
2023-04-03T17:42:34.571Z,100367.00
2023-04-03T17:45:01.351Z,100364.66
2023-04-03T17:47:27.837Z,100387.81
2023-04-03T17:49:54.506Z,100381.16
2023-04-03T17:52:24.076Z,100385.47
2023-04-03T17:54:51.028Z,100389.44
2023-04-03T17:57:17.599Z,100383.53
2023-04-03T17:59:44.083Z,100387.50
2023-04-03T18:02:10.846Z,100365.16
2023-04-03T18:04:37.313Z,100371.75
2023-04-03T18:07:04.002Z,100383.94
2023-04-03T18:09:32.258Z,100391.41
2023-04-03T18:12:01.137Z,100394.97
2023-04-03T18:14:28.146Z,100390.59
2023-04-03T18:16:57.355Z,100393.00
2023-04-03T18:19:25.010Z,100402.41
2023-04-03T18:21:53.079Z,100401.63
2023-04-03T18:24:22.412Z,100400.88
2023-04-03T18:26:55.844Z,100389.09
2023-04-03T18:29:24.395Z,100382.47
2023-04-03T18:31:53.036Z,100395.81
2023-04-03T18:34:19.650Z,100393.09
2023-04-03T18:36:47.481Z,100395.84
2023-04-03T18:39:15.005Z,100384.91
2023-04-03T18:41:42.381Z,100384.53
2023-04-03T18:44:12.162Z,100398.69
2023-04-03T18:46:39.959Z,100400.63
2023-04-03T18:49:07.954Z,100392.41
2023-04-03T18:51:35.370Z,100399.09
2023-04-03T18:54:02.688Z,100389.69
2023-04-03T18:56:30.933Z,100400.69
2023-04-03T18:58:58.400Z,100403.41
2023-04-03T19:01:25.010Z,100402.66
2023-04-03T19:03:51.974Z,100384.22
2023-04-03T19:06:19.096Z,100397.16
2023-04-03T19:08:46.037Z,100404.19
2023-04-03T19:11:12.559Z,100412.88
2023-04-03T19:13:47.016Z,100386.59
2023-04-03T19:16:27.213Z,100417.97
2023-04-03T19:18:53.901Z,100422.31
2023-04-03T19:21:20.534Z,100403.06
2023-04-03T19:23:48.650Z,100413.25
2023-04-03T19:26:15.296Z,100394.81
2023-04-03T19:28:43.088Z,100412.88
2023-04-03T19:31:17.144Z,100410.94
2023-04-03T19:33:44.436Z,100408.97
2023-04-03T19:36:12.042Z,100410.53
2023-04-03T19:38:39.133Z,100417.63
2023-04-03T19:41:18.988Z,100406.63
2023-04-03T19:43:46.001Z,100415.25
2023-04-03T19:46:12.881Z,100406.22
2023-04-03T19:48:39.447Z,100412.53
2023-04-03T19:51:06.149Z,100405.47
2023-04-03T19:53:32.958Z,100418.41
2023-04-03T19:56:00.771Z,100415.66
2023-04-03T19:58:30.220Z,100414.47
2023-04-03T20:00:57.610Z,100405.47
2023-04-03T20:03:25.137Z,100411.34
2023-04-03T20:05:52.803Z,100413.72
2023-04-03T20:08:19.851Z,100409.78
2023-04-03T20:10:46.983Z,100410.97
2023-04-03T20:13:13.953Z,100408.97
2023-04-03T20:15:44.828Z,100403.88
2023-04-03T20:18:18.086Z,100405.06
2023-04-03T20:20:56.005Z,100410.97
2023-04-03T20:23:22.936Z,100401.94
2023-04-03T20:25:58.037Z,100399.97
2023-04-03T20:28:34.045Z,100411.38
2023-04-03T20:31:02.032Z,100409.03
2023-04-03T20:33:28.711Z,100409.78
2023-04-03T20:35:57.510Z,100397.22
2023-04-03T20:38:24.545Z,100403.88
2023-04-03T20:40:51.502Z,100402.72
2023-04-03T20:43:18.079Z,100401.13
2023-04-03T20:45:44.666Z,100393.69
2023-04-03T20:48:13.102Z,100380.72
2023-04-03T20:50:41.243Z,100388.97
2023-04-03T20:53:08.912Z,100390.53
2023-04-03T20:55:35.546Z,100385.44
2023-04-03T20:58:02.255Z,100380.72
2023-04-03T21:00:31.629Z,100388.97
2023-04-03T21:02:59.647Z,100378.78
2023-04-03T21:05:28.990Z,100385.44
2023-04-03T21:08:33.419Z,100382.28
2023-04-03T21:11:37.590Z,100377.59
2023-04-03T21:14:42.457Z,100372.09
2023-04-03T21:17:08.839Z,100374.44
2023-04-03T21:19:40.114Z,100385.44
2023-04-03T21:22:06.643Z,100376.03
2023-04-03T21:24:33.200Z,100385.03
2023-04-03T21:26:59.674Z,100380.75
2023-04-03T21:29:26.163Z,100377.59
2023-04-03T21:31:56.713Z,100374.06
2023-04-03T21:34:30.764Z,100370.16
2023-04-03T21:37:01.636Z,100354.84
2023-04-03T21:39:28.435Z,100377.22
2023-04-03T21:41:55.270Z,100367.78
2023-04-03T21:44:22.628Z,100375.66
2023-04-03T21:46:54.329Z,100374.84
2023-04-03T21:49:24.521Z,100369.34
2023-04-03T21:51:52.606Z,100363.50
2023-04-03T21:54:20.073Z,100369.00
2023-04-03T21:56:51.423Z,100372.50
2023-04-03T21:59:18.328Z,100364.66
2023-04-03T22:01:44.973Z,100364.25
2023-04-03T22:04:11.533Z,100363.50
2023-04-03T22:06:38.261Z,100360.34
2023-04-03T22:09:04.993Z,100359.56
2023-04-03T22:11:31.659Z,100341.91
2023-04-03T22:13:58.213Z,100366.25
2023-04-03T22:16:24.912Z,100368.19
2023-04-03T22:18:52.606Z,100361.91
2023-04-03T22:21:19.706Z,100362.69
2023-04-03T22:23:46.353Z,100354.47
2023-04-03T22:26:13.430Z,100358.78
2023-04-03T22:28:42.034Z,100342.72
2023-04-03T22:31:10.800Z,100358.78
2023-04-03T22:33:37.934Z,100356.44
2023-04-03T22:36:06.108Z,100354.84
2023-04-03T22:38:33.215Z,100350.16
2023-04-03T22:41:01.660Z,100334.47
2023-04-03T22:43:28.996Z,100347.81
2023-04-03T22:45:56.301Z,100350.16
2023-04-03T22:48:23.990Z,100350.94
2023-04-03T22:50:53.632Z,100343.91
2023-04-03T22:53:20.312Z,100347.81
2023-04-03T22:56:00.482Z,100336.06
2023-04-03T22:58:27.717Z,100329.38
2023-04-03T23:01:14.730Z,100343.50
2023-04-03T23:03:42.379Z,100335.25
2023-04-03T23:06:09.875Z,100344.28
2023-04-03T23:08:40.664Z,100339.97
2023-04-03T23:11:07.495Z,100325.47
2023-04-03T23:13:34.116Z,100337.22
2023-04-03T23:16:01.465Z,100334.47
2023-04-03T23:18:30.143Z,100336.06
2023-04-03T23:20:58.628Z,100334.09
2023-04-03T23:23:25.379Z,100338.00
2023-04-03T23:25:57.113Z,100338.00
2023-04-03T23:28:23.865Z,100331.34
2023-04-03T23:30:51.668Z,100333.69
2023-04-03T23:33:18.185Z,100315.66
2023-04-03T23:35:46.600Z,100306.22
2023-04-03T23:38:13.419Z,100328.97
2023-04-03T23:40:41.775Z,100322.31
2023-04-03T23:43:08.357Z,100327.03
2023-04-03T23:45:34.927Z,100320.38
2023-04-03T23:48:01.972Z,100328.22
2023-04-03T23:50:28.852Z,100321.91
2023-04-03T23:52:55.562Z,100326.63
2023-04-03T23:55:22.169Z,100325.84
2023-04-03T23:57:48.738Z,100327.03
